createdAt,value
2019-04-07T00:04:16.929Z,96760.77
2019-04-07T00:09:16.571Z,96763.48
2019-04-07T00:18:15.226Z,96767.53
2019-04-07T00:22:20.971Z,96766.92
2019-04-07T00:26:26.814Z,96762.60
2019-04-07T00:30:32.520Z,96755.06
2019-04-07T00:34:38.222Z,96758.47
2019-04-07T00:38:43.928Z,96767.48
2019-04-07T00:42:50.166Z,96769.42
2019-04-07T00:46:56.061Z,96763.61
2019-04-07T00:51:01.752Z,96768.06
2019-04-07T00:55:08.861Z,96768.72
2019-04-07T00:59:14.601Z,96761.71
2019-04-07T01:03:20.293Z,96759.08
2019-04-07T01:07:26.127Z,96761.02
2019-04-07T01:11:32.372Z,96763.52
2019-04-07T01:15:38.393Z,96759.46
2019-04-07T01:19:44.288Z,96755.67
2019-04-07T01:23:50.215Z,96761.55
2019-04-07T01:27:56.577Z,96760.44
2019-04-07T01:32:02.398Z,96763.19
2019-04-07T01:36:08.266Z,96759.91
2019-04-07T01:40:14.499Z,96760.30
2019-04-07T01:44:36.721Z,96749.28
2019-04-07T01:48:44.756Z,96740.04
2019-04-07T01:53:01.088Z,96735.05
2019-04-07T01:57:12.731Z,96745.69
2019-04-07T02:01:20.810Z,96741.20
2019-04-07T02:05:32.365Z,96744.78
2019-04-07T02:09:55.712Z,96742.25
2019-04-07T02:14:09.029Z,96744.21
2019-04-07T02:18:18.899Z,96754.69
2019-04-07T02:22:25.588Z,96758.00
2019-04-07T02:26:50.698Z,96759.89
2019-04-07T02:31:00.873Z,96760.91
2019-04-07T02:35:16.566Z,96755.83
2019-04-07T02:39:24.696Z,96759.28
2019-04-07T02:43:48.892Z,96752.99
2019-04-07T02:47:56.475Z,96748.41
2019-04-07T02:52:18.490Z,96756.71
2019-04-07T02:56:34.509Z,96758.19
2019-04-07T03:00:48.710Z,96760.30
2019-04-07T03:05:06.306Z,96756.18
2019-04-07T03:09:31.171Z,96763.19
2019-04-07T03:13:54.280Z,96751.12
2019-04-07T03:18:04.907Z,96758.84
2019-04-07T03:22:29.253Z,96761.58
2019-04-07T03:26:45.453Z,96769.81
2019-04-07T03:30:58.435Z,96764.55
2019-04-07T03:35:23.486Z,96769.97
2019-04-07T03:39:39.388Z,96774.77
2019-04-07T03:43:46.720Z,96770.59
2019-04-07T03:47:56.836Z,96782.94
2019-04-07T03:52:04.660Z,96781.44
2019-04-07T03:56:14.508Z,96787.98
2019-04-07T04:01:08.485Z,96790.36
2019-04-07T04:05:18.919Z,96783.41
2019-04-07T04:09:40.813Z,96783.19
2019-04-07T04:13:51.133Z,96788.47
2019-04-07T04:17:57.354Z,96797.64
2019-04-07T04:22:03.995Z,96792.57
2019-04-07T04:26:09.734Z,96798.56
2019-04-07T04:30:15.492Z,96805.91
2019-04-07T04:34:21.167Z,96809.61
2019-04-07T04:38:27.319Z,96813.58
2019-04-07T04:42:33.939Z,96825.25
2019-04-07T04:46:40.907Z,96828.78
2019-04-07T04:50:47.199Z,96830.52
2019-04-07T04:54:53.681Z,96836.81
2019-04-07T04:58:59.808Z,96838.44
2019-04-07T05:03:05.629Z,96842.77
2019-04-07T05:07:11.376Z,96844.36
2019-04-07T05:11:17.507Z,96849.02
2019-04-07T05:15:23.243Z,96864.64
2019-04-07T05:19:28.939Z,96868.95
2019-04-07T05:23:34.849Z,96868.05
2019-04-07T05:27:41.523Z,96877.89
2019-04-07T05:31:47.454Z,96876.44
2019-04-07T05:35:53.329Z,96875.69
2019-04-07T05:39:59.143Z,96876.75
2019-04-07T05:44:05.538Z,96879.98
2019-04-07T05:48:11.944Z,96890.06
2019-04-07T05:52:18.109Z,96886.83
2019-04-07T05:56:28.143Z,96888.17
2019-04-07T06:00:31.221Z,96898.67
2019-04-07T06:04:36.919Z,96898.97
2019-04-07T06:08:42.655Z,96895.96
2019-04-07T06:12:49.006Z,96909.34
2019-04-07T06:16:55.711Z,96907.66
2019-04-07T06:21:01.673Z,96905.41
2019-04-07T06:25:09.757Z,96911.06
2019-04-07T06:29:16.100Z,96914.16
2019-04-07T06:33:22.848Z,96905.89
2019-04-07T06:37:29.463Z,96908.05
2019-04-07T06:41:35.230Z,96908.97
2019-04-07T06:45:45.466Z,96912.59
2019-04-07T06:50:09.592Z,96906.88
2019-04-07T06:54:28.731Z,96907.81
2019-04-07T06:58:41.861Z,96909.02
2019-04-07T07:03:04.394Z,96909.48
2019-04-07T07:07:13.039Z,96903.27
2019-04-07T07:11:34.657Z,96903.11
2019-04-07T07:15:42.858Z,96899.77
2019-04-07T07:19:57.408Z,96902.34
2019-04-07T07:24:03.317Z,96902.59
2019-04-07T07:28:12.456Z,96907.45
2019-04-07T07:32:18.015Z,96904.66
2019-04-07T07:36:23.998Z,96909.89
2019-04-07T07:40:29.976Z,96913.56
2019-04-07T07:44:37.547Z,96913.66
2019-04-07T07:48:43.148Z,96909.83
2019-04-07T07:52:51.307Z,96921.67
2019-04-07T07:56:57.062Z,96916.16
2019-04-07T08:01:03.315Z,96924.11
2019-04-07T08:05:09.341Z,96923.79
2019-04-07T08:09:18.680Z,96921.80
2019-04-07T08:13:22.539Z,96922.27
2019-04-07T08:17:31.630Z,96925.66
2019-04-07T08:21:35.690Z,96923.12
2019-04-07T08:25:41.545Z,96922.52
2019-04-07T08:29:47.451Z,96925.23
2019-04-07T08:33:53.755Z,96925.39
2019-04-07T08:38:00.963Z,96932.73
2019-04-07T08:42:10.729Z,96932.02
2019-04-07T08:46:14.194Z,96930.41
2019-04-07T08:50:21.521Z,96930.06
2019-04-07T08:54:27.605Z,96928.56
2019-04-07T08:58:37.923Z,96922.42
2019-04-07T09:02:40.743Z,96933.89
2019-04-07T09:06:46.462Z,96930.92
2019-04-07T09:10:53.882Z,96929.27
2019-04-07T09:15:02.832Z,96935.26
2019-04-07T09:19:15.599Z,96936.27
2019-04-07T09:23:25.158Z,96927.20
2019-04-07T09:27:28.255Z,96933.31
2019-04-07T09:31:47.855Z,96936.58
2019-04-07T09:36:07.966Z,96936.03
2019-04-07T09:40:27.941Z,96939.77
2019-04-07T09:44:50.741Z,96944.70
2019-04-07T09:49:01.869Z,96946.38
2019-04-07T09:53:19.539Z,96957.92
2019-04-07T09:57:40.983Z,96957.53
2019-04-07T10:01:57.043Z,96964.75
2019-04-07T10:06:20.343Z,96957.33
2019-04-07T10:10:31.609Z,96953.16
2019-04-07T10:14:51.709Z,96959.39
2019-04-07T10:18:59.280Z,96952.34
2019-04-07T10:23:10.726Z,96951.28
2019-04-07T10:27:20.663Z,96951.24
2019-04-07T10:31:31.575Z,96951.30
2019-04-07T10:35:55.208Z,96940.75
2019-04-07T10:40:19.519Z,96936.98
2019-04-07T10:44:21.334Z,96930.51
2019-04-07T10:48:28.721Z,96932.64
2019-04-07T10:52:36.142Z,96937.35
2019-04-07T10:56:45.071Z,96936.40
2019-04-07T11:01:14.512Z,96941.60
2019-04-07T11:05:20.577Z,96934.28
2019-04-07T11:09:28.395Z,96932.84
2019-04-07T11:13:53.459Z,96932.88
2019-04-07T11:17:59.268Z,96928.94
2019-04-07T11:22:05.626Z,96931.94
2019-04-07T11:26:22.012Z,96927.80
2019-04-07T11:30:38.712Z,96928.15
2019-04-07T11:34:46.668Z,96922.69
2019-04-07T11:38:52.762Z,96910.48
2019-04-07T11:42:59.037Z,96913.83
2019-04-07T11:47:14.166Z,96921.16
2019-04-07T11:51:27.967Z,96921.12
2019-04-07T11:55:51.988Z,96925.89
2019-04-07T12:00:18.389Z,96921.87
2019-04-07T12:04:32.690Z,96920.47
2019-04-07T12:08:44.585Z,96927.58
2019-04-07T12:13:05.080Z,96923.89
2019-04-07T12:17:13.801Z,96930.30
2019-04-07T12:34:15.562Z,96929.49
2019-04-07T12:39:18.927Z,96922.63
2019-04-07T12:43:35.934Z,96936.33
2019-04-07T12:48:36.070Z,96925.72
2019-04-07T12:52:53.989Z,96930.45
2019-04-07T12:57:18.838Z,96913.13
2019-04-07T13:01:27.003Z,96917.84
2019-04-07T13:06:22.271Z,96912.05
2019-04-07T13:10:30.237Z,96917.72
2019-04-07T13:15:35.466Z,96921.06
2019-04-07T13:19:46.766Z,96912.86
2019-04-07T13:24:31.805Z,96915.89
2019-04-07T13:28:37.137Z,96918.30
2019-04-07T13:33:23.750Z,96921.47
2019-04-07T13:37:42.215Z,96924.69
2019-04-07T13:42:19.660Z,96927.90
2019-04-07T13:46:36.185Z,96932.23
2019-04-07T13:51:19.909Z,96931.13
2019-04-07T13:55:35.030Z,96932.42
2019-04-07T14:00:29.408Z,96937.49
2019-04-07T14:04:39.510Z,96939.84
2019-04-07T14:09:35.422Z,96945.52
2019-04-07T14:13:59.160Z,96945.75
2019-04-07T14:18:21.368Z,96948.12
2019-04-07T14:22:36.387Z,96952.14
2019-04-07T14:27:29.757Z,96956.25
2019-04-07T14:31:49.134Z,96950.27
2019-04-07T14:36:25.011Z,96951.06
2019-04-07T14:40:30.556Z,96950.70
2019-04-07T14:45:26.411Z,96947.01
2019-04-07T14:49:46.164Z,96951.25
2019-04-07T14:54:19.674Z,96949.28
2019-04-07T14:58:29.127Z,96948.55
2019-04-07T15:03:17.043Z,96951.25
2019-04-07T15:07:40.839Z,96951.78
2019-04-07T15:11:48.720Z,96954.98
2019-04-07T15:15:54.377Z,96949.42
2019-04-07T15:20:00.094Z,96959.44
2019-04-07T15:24:08.190Z,96955.55
2019-04-07T15:28:15.986Z,96956.60
2019-04-07T15:32:26.600Z,96963.97
2019-04-07T15:36:29.983Z,96965.13
2019-04-07T15:40:36.495Z,96957.94
2019-04-07T15:44:42.748Z,96958.16
2019-04-07T15:48:50.198Z,96960.69
2019-04-07T15:52:56.390Z,96960.74
2019-04-07T15:57:20.199Z,96964.30
2019-04-07T16:01:24.965Z,96974.41
2019-04-07T16:05:38.021Z,96976.64
2019-04-07T16:09:47.870Z,96981.66
2019-04-07T16:13:46.297Z,96985.14
2019-04-07T16:17:52.290Z,96985.23
2019-04-07T16:21:58.059Z,96986.81
2019-04-07T16:26:03.794Z,96982.69
2019-04-07T16:30:11.309Z,96985.15
2019-04-07T16:57:45.072Z,97018.63
2019-04-07T17:01:50.942Z,97014.23
2019-04-07T17:05:59.346Z,97009.84
2019-04-07T17:10:05.027Z,97015.96
2019-04-07T17:14:11.697Z,97023.84
2019-04-07T17:18:43.350Z,97026.72
2019-04-07T17:22:49.449Z,97028.84
2019-04-07T17:26:56.277Z,97035.62
2019-04-07T17:36:31.046Z,97041.38
2019-04-07T17:40:38.520Z,97031.98
2019-04-07T17:44:48.318Z,97037.25
2019-04-07T17:49:11.108Z,97038.36
2019-04-07T17:53:36.733Z,97039.12
2019-04-07T17:57:43.886Z,97045.72
2019-04-07T18:01:54.417Z,97048.49
2019-04-07T18:06:10.132Z,97061.72
2019-04-07T18:10:26.389Z,97059.77
2019-04-07T18:14:52.105Z,97068.07
2019-04-07T18:19:05.463Z,97066.97
2019-04-07T18:23:11.088Z,97074.62
2019-04-07T18:27:36.304Z,97078.66
2019-04-07T18:31:43.744Z,97084.22
2019-04-07T18:35:57.019Z,97089.50
2019-04-07T18:40:10.902Z,97098.74
2019-04-07T18:44:18.409Z,97099.48
2019-04-07T18:48:28.794Z,97103.39
2019-04-07T18:52:33.950Z,97112.36
2019-04-07T18:56:41.730Z,97122.57
2019-04-07T19:01:07.373Z,97123.74
2019-04-07T19:05:13.202Z,97130.45
2019-04-07T19:09:23.934Z,97134.30
2019-04-07T19:13:33.567Z,97137.42
2019-04-07T19:17:41.018Z,97143.92
2019-04-07T19:22:06.702Z,97146.95
2019-04-07T19:26:18.461Z,97145.86
2019-04-07T19:30:38.960Z,97156.00
2019-04-07T19:35:03.310Z,97157.69
2019-04-07T19:39:30.940Z,97157.36
2019-04-07T19:43:44.669Z,97156.84
2019-04-07T19:48:06.438Z,97164.45
2019-04-07T19:52:12.695Z,97168.23
2019-04-07T19:56:27.285Z,97168.45
2019-04-07T20:00:54.278Z,97169.76
2019-04-07T20:05:18.445Z,97171.20
2019-04-07T20:09:39.471Z,97177.88
2019-04-07T20:13:49.483Z,97170.94
2019-04-07T20:17:58.374Z,97171.20
2019-04-07T20:22:22.811Z,97176.89
2019-04-07T20:26:28.417Z,97175.20
2019-04-07T20:30:45.564Z,97180.24
2019-04-07T20:34:50.747Z,97175.23
2019-04-07T20:39:01.790Z,97182.81
2019-04-07T20:43:23.150Z,97188.66
2019-04-07T20:47:34.549Z,97192.22
2019-04-07T20:51:40.966Z,97193.73
2019-04-07T20:55:54.296Z,97197.93
2019-04-07T21:00:03.581Z,97202.31
2019-04-07T21:04:27.583Z,97200.89
2019-04-07T21:08:38.768Z,97205.14
2019-04-07T21:12:45.423Z,97223.45
2019-04-07T21:16:55.334Z,97216.58
2019-04-07T21:21:09.614Z,97216.90
2019-04-07T21:25:24.245Z,97223.33
2019-04-07T21:29:34.573Z,97221.78
2019-04-07T21:33:44.360Z,97224.02
2019-04-07T21:37:55.079Z,97232.10
2019-04-07T21:42:03.013Z,97233.50
2019-04-07T21:46:13.400Z,97233.36
2019-04-07T21:50:26.553Z,97230.41
2019-04-07T21:54:50.380Z,97230.28
2019-04-07T21:58:59.199Z,97235.31
2019-04-07T22:03:15.861Z,97235.30
2019-04-07T22:07:27.651Z,97238.92
2019-04-07T22:11:34.736Z,97239.23
2019-04-07T22:15:45.923Z,97240.77
2019-04-07T22:19:49.051Z,97241.52
2019-04-07T22:23:54.912Z,97252.44
2019-04-07T22:28:00.885Z,97256.66
2019-04-07T22:32:07.498Z,97264.10
2019-04-07T22:36:14.652Z,97262.28
2019-04-07T22:40:22.564Z,97265.31
2019-04-07T22:44:28.263Z,97271.06
2019-04-07T22:48:34.933Z,97273.48
2019-04-07T22:52:40.632Z,97277.09
2019-04-07T22:56:46.700Z,97287.65
2019-04-07T23:00:52.550Z,97285.02
2019-04-07T23:05:00.850Z,97289.84
2019-04-07T23:09:08.810Z,97295.65
2019-04-07T23:13:15.416Z,97291.67
2019-04-07T23:17:21.380Z,97291.17
2019-04-07T23:21:27.927Z,97294.48
2019-04-07T23:25:34.370Z,97300.06
2019-04-07T23:29:40.023Z,97295.64
2019-04-07T23:33:45.931Z,97295.58
2019-04-07T23:37:51.569Z,97299.89
2019-04-07T23:41:57.517Z,97307.88
2019-04-07T23:46:05.140Z,97305.66
2019-04-07T23:50:11.174Z,97306.88
2019-04-07T23:54:18.293Z,97302.43
2019-04-07T23:58:24.127Z,97307.48
